sensor_id;sensor_type;location;lat;lon;timestamp;pressure;altitude;pressure_sealevel;temperature;humidity
54918;BME280;40818;50.562;7.454;2022-11-27T00:02:22;98799.69;;;2.50;100.00
54918;BME280;40818;50.562;7.454;2022-11-27T00:12:29;98779.31;;;2.41;100.00
54918;BME280;40818;50.562;7.454;2022-11-27T00:22:33;98764.94;;;2.30;100.00
54918;BME280;40818;50.562;7.454;2022-11-27T00:32:39;98756.59;;;2.19;100.00
54918;BME280;40818;50.562;7.454;2022-11-27T00:42:42;98768.47;;;2.23;100.00
54918;BME280;40818;50.562;7.454;2022-11-27T00:52:48;98774.47;;;2.22;100.00
54918;BME280;40818;50.562;7.454;2022-11-27T01:02:52;98761.75;;;2.17;100.00
54918;BME280;40818;50.562;7.454;2022-11-27T01:12:58;98763.59;;;2.08;100.00
54918;BME280;40818;50.562;7.454;2022-11-27T01:23:01;98766.09;;;2.11;100.00
54918;BME280;40818;50.562;7.454;2022-11-27T01:33:07;98767.75;;;2.15;100.00
54918;BME280;40818;50.562;7.454;2022-11-27T01:43:13;98748.25;;;2.04;100.00
54918;BME280;40818;50.562;7.454;2022-11-27T01:53:19;98733.25;;;1.80;100.00
54918;BME280;40818;50.562;7.454;2022-11-27T02:03:23;98719.75;;;1.67;100.00
54918;BME280;40818;50.562;7.454;2022-11-27T02:13:31;98708.84;;;1.54;100.00
54918;BME280;40818;50.562;7.454;2022-11-27T02:23:51;98695.25;;;1.49;100.00
54918;BME280;40818;50.562;7.454;2022-11-27T02:34:10;98705.50;;;1.50;100.00
54918;BME280;40818;50.562;7.454;2022-11-27T02:44:16;98682.59;;;1.40;100.00
54918;BME280;40818;50.562;7.454;2022-11-27T02:54:26;98675.94;;;1.26;100.00
54918;BME280;40818;50.562;7.454;2022-11-27T03:04:32;98666.56;;;1.25;100.00
54918;BME280;40818;50.562;7.454;2022-11-27T03:14:41;98655.47;;;1.26;100.00
54918;BME280;40818;50.562;7.454;2022-11-27T03:24:45;98646.06;;;1.28;100.00
54918;BME280;40818;50.562;7.454;2022-11-27T03:34:52;98633.22;;;1.33;100.00
54918;BME280;40818;50.562;7.454;2022-11-27T03:45:03;98626.31;;;1.40;100.00
54918;BME280;40818;50.562;7.454;2022-11-27T03:55:17;98621.09;;;1.46;100.00
54918;BME280;40818;50.562;7.454;2022-11-27T04:05:23;98623.56;;;1.52;100.00
54918;BME280;40818;50.562;7.454;2022-11-27T04:15:30;98635.38;;;1.61;100.00
54918;BME280;40818;50.562;7.454;2022-11-27T04:25:33;98639.53;;;1.68;100.00
54918;BME280;40818;50.562;7.454;2022-11-27T04:35:39;98623.41;;;1.61;100.00
54918;BME280;40818;50.562;7.454;2022-11-27T04:45:43;98587.75;;;1.52;100.00
54918;BME280;40818;50.562;7.454;2022-11-27T04:55:49;98575.81;;;1.51;100.00
54918;BME280;40818;50.562;7.454;2022-11-27T05:05:54;98556.84;;;1.63;100.00
54918;BME280;40818;50.562;7.454;2022-11-27T05:16:00;98545.72;;;1.65;100.00
54918;BME280;40818;50.562;7.454;2022-11-27T05:26:04;98560.97;;;1.72;100.00
54918;BME280;40818;50.562;7.454;2022-11-27T05:36:10;98532.00;;;1.69;100.00
54918;BME280;40818;50.562;7.454;2022-11-27T05:46:16;98499.53;;;1.72;100.00
54918;BME280;40818;50.562;7.454;2022-11-27T05:56:23;98487.56;;;1.74;100.00
54918;BME280;40818;50.562;7.454;2022-11-27T06:06:26;98493.38;;;1.82;100.00
54918;BME280;40818;50.562;7.454;2022-11-27T06:16:32;98506.69;;;2.01;100.00
54918;BME280;40818;50.562;7.454;2022-11-27T06:26:36;98495.59;;;2.00;100.00
54918;BME280;40818;50.562;7.454;2022-11-27T06:36:42;98480.19;;;2.03;100.00
54918;BME280;40818;50.562;7.454;2022-11-27T06:46:45;98480.94;;;2.10;100.00
54918;BME280;40818;50.562;7.454;2022-11-27T06:56:51;98467.13;;;2.17;100.00
54918;BME280;40818;50.562;7.454;2022-11-27T07:06:55;98470.34;;;2.27;100.00
54918;BME280;40818;50.562;7.454;2022-11-27T07:17:01;98456.59;;;2.31;100.00
54918;BME280;40818;50.562;7.454;2022-11-27T07:27:04;98439.41;;;2.35;100.00
54918;BME280;40818;50.562;7.454;2022-11-27T07:37:11;98432.63;;;2.34;100.00
54918;BME280;40818;50.562;7.454;2022-11-27T07:47:30;98421.41;;;2.38;100.00
54918;BME280;40818;50.562;7.454;2022-11-27T07:57:36;98420.34;;;2.48;100.00
54918;BME280;40818;50.562;7.454;2022-11-27T08:07:40;98411.63;;;2.57;100.00
54918;BME280;40818;50.562;7.454;2022-11-27T08:17:46;98389.22;;;2.65;100.00
54918;BME280;40818;50.562;7.454;2022-11-27T08:27:49;98390.75;;;2.72;100.00
54918;BME280;40818;50.562;7.454;2022-11-27T08:37:56;98368.91;;;2.92;100.00
54918;BME280;40818;50.562;7.454;2022-11-27T08:47:59;98377.16;;;3.06;100.00
54918;BME280;40818;50.562;7.454;2022-11-27T08:58:05;98371.34;;;3.33;100.00
54918;BME280;40818;50.562;7.454;2022-11-27T09:08:09;98352.28;;;3.41;100.00
54918;BME280;40818;50.562;7.454;2022-11-27T09:18:22;98359.53;;;3.58;100.00
54918;BME280;40818;50.562;7.454;2022-11-27T09:28:25;98351.94;;;3.55;100.00
54918;BME280;40818;50.562;7.454;2022-11-27T09:38:32;98333.56;;;3.69;100.00
54918;BME280;40818;50.562;7.454;2022-11-27T09:48:38;98321.28;;;3.81;100.00
54918;BME280;40818;50.562;7.454;2022-11-27T09:58:51;98331.00;;;3.99;100.00
54918;BME280;40818;50.562;7.454;2022-11-27T10:09:07;98320.09;;;4.21;100.00
54918;BME280;40818;50.562;7.454;2022-11-27T10:19:29;98284.81;;;3.98;100.00
54918;BME280;40818;50.562;7.454;2022-11-27T10:29:53;98275.16;;;4.61;100.00
54918;BME280;40818;50.562;7.454;2022-11-27T10:40:02;98278.31;;;5.20;100.00
54918;BME280;40818;50.562;7.454;2022-11-27T10:50:12;98281.47;;;5.28;100.00
54918;BME280;40818;50.562;7.454;2022-11-27T11:00:21;98272.34;;;4.94;100.00
54918;BME280;40818;50.562;7.454;2022-11-27T11:10:30;98238.50;;;5.05;100.00
54918;BME280;40818;50.562;7.454;2022-11-27T11:20:37;98251.59;;;4.99;100.00
54918;BME280;40818;50.562;7.454;2022-11-27T11:30:41;98223.38;;;5.21;100.00
54918;BME280;40818;50.562;7.454;2022-11-27T11:40:56;98188.41;;;4.90;100.00
54918;BME280;40818;50.562;7.454;2022-11-27T11:51:07;98169.91;;;5.05;100.00
54918;BME280;40818;50.562;7.454;2022-11-27T12:01:27;98188.97;;;5.23;100.00
54918;BME280;40818;50.562;7.454;2022-11-27T12:11:43;98159.19;;;5.16;100.00
54918;BME280;40818;50.562;7.454;2022-11-27T12:21:58;98135.00;;;5.20;100.00
54918;BME280;40818;50.562;7.454;2022-11-27T12:32:18;98125.44;;;5.24;100.00
54918;BME280;40818;50.562;7.454;2022-11-27T12:42:28;98110.97;;;5.43;100.00
54918;BME280;40818;50.562;7.454;2022-11-27T12:52:37;98085.69;;;5.31;100.00
54918;BME280;40818;50.562;7.454;2022-11-27T13:02:54;98060.69;;;5.12;100.00
54918;BME280;40818;50.562;7.454;2022-11-27T13:13:03;98027.81;;;4.97;100.00
54918;BME280;40818;50.562;7.454;2022-11-27T13:23:11;97979.16;;;4.91;100.00
54918;BME280;40818;50.562;7.454;2022-11-27T13:33:25;97964.28;;;4.75;100.00
54918;BME280;40818;50.562;7.454;2022-11-27T13:43:40;97931.81;;;4.73;100.00
54918;BME280;40818;50.562;7.454;2022-11-27T13:53:44;97936.97;;;4.73;100.00
54918;BME280;40818;50.562;7.454;2022-11-27T14:03:51;97945.00;;;4.87;100.00
54918;BME280;40818;50.562;7.454;2022-11-27T14:13:55;97928.41;;;4.72;100.00
54918;BME280;40818;50.562;7.454;2022-11-27T14:24:02;97928.34;;;4.74;100.00
54918;BME280;40818;50.562;7.454;2022-11-27T14:34:24;97940.94;;;4.82;100.00
54918;BME280;40818;50.562;7.454;2022-11-27T14:44:30;97967.28;;;4.87;100.00
54918;BME280;40818;50.562;7.454;2022-11-27T14:54:36;97964.09;;;4.82;100.00
54918;BME280;40818;50.562;7.454;2022-11-27T15:04:45;97964.31;;;4.52;100.00
54918;BME280;40818;50.562;7.454;2022-11-27T15:14:55;97948.41;;;4.18;100.00
54918;BME280;40818;50.562;7.454;2022-11-27T15:25:05;97938.25;;;4.15;100.00
54918;BME280;40818;50.562;7.454;2022-11-27T15:35:12;97929.16;;;4.06;100.00
54918;BME280;40818;50.562;7.454;2022-11-27T15:45:19;97931.88;;;4.02;100.00
54918;BME280;40818;50.562;7.454;2022-11-27T15:55:22;97925.16;;;3.98;100.00
54918;BME280;40818;50.562;7.454;2022-11-27T16:05:28;97921.03;;;3.93;100.00
54918;BME280;40818;50.562;7.454;2022-11-27T16:15:32;97910.22;;;3.84;100.00
54918;BME280;40818;50.562;7.454;2022-11-27T16:25:39;97924.34;;;3.72;100.00
54918;BME280;40818;50.562;7.454;2022-11-27T16:35:42;97882.00;;;3.58;100.00
54918;BME280;40818;50.562;7.454;2022-11-27T16:45:48;97837.22;;;3.42;100.00
54918;BME280;40818;50.562;7.454;2022-11-27T16:55:52;97817.88;;;3.33;100.00
54918;BME280;40818;50.562;7.454;2022-11-27T17:05:59;97772.00;;;3.24;100.00
54918;BME280;40818;50.562;7.454;2022-11-27T17:16:03;97786.50;;;3.25;100.00
54918;BME280;40818;50.562;7.454;2022-11-27T17:26:10;97787.75;;;3.38;100.00
54918;BME280;40818;50.562;7.454;2022-11-27T17:36:14;97755.47;;;3.31;100.00
54918;BME280;40818;50.562;7.454;2022-11-27T17:46:22;97748.69;;;3.30;100.00
54918;BME280;40818;50.562;7.454;2022-11-27T17:56:27;97714.72;;;3.23;100.00
54918;BME280;40818;50.562;7.454;2022-11-27T18:06:34;97722.09;;;3.33;100.00
54918;BME280;40818;50.562;7.454;2022-11-27T18:16:37;97710.78;;;3.38;100.00
54918;BME280;40818;50.562;7.454;2022-11-27T18:26:43;97712.22;;;3.46;100.00
54918;BME280;40818;50.562;7.454;2022-11-27T18:36:47;97694.69;;;3.33;100.00
54918;BME280;40818;50.562;7.454;2022-11-27T18:46:53;97655.22;;;3.14;100.00
54918;BME280;40818;50.562;7.454;2022-11-27T18:56:56;97651.66;;;3.18;100.00
54918;BME280;40818;50.562;7.454;2022-11-27T19:07:03;97620.88;;;3.18;100.00
54918;BME280;40818;50.562;7.454;2022-11-27T19:17:06;97631.63;;;3.28;100.00
54918;BME280;40818;50.562;7.454;2022-11-27T19:27:12;97625.16;;;3.39;100.00
54918;BME280;40818;50.562;7.454;2022-11-27T19:37:16;97633.47;;;3.46;100.00
54918;BME280;40818;50.562;7.454;2022-11-27T19:47:22;97634.88;;;3.55;100.00
54918;BME280;40818;50.562;7.454;2022-11-27T19:57:26;97615.69;;;3.64;100.00
54918;BME280;40818;50.562;7.454;2022-11-27T20:07:32;97637.47;;;3.75;100.00
54918;BME280;40818;50.562;7.454;2022-11-27T20:17:36;97599.97;;;3.71;100.00
54918;BME280;40818;50.562;7.454;2022-11-27T20:27:42;97609.34;;;3.72;100.00
54918;BME280;40818;50.562;7.454;2022-11-27T20:37:46;97584.84;;;3.65;100.00
54918;BME280;40818;50.562;7.454;2022-11-27T20:47:52;97589.06;;;3.66;100.00
54918;BME280;40818;50.562;7.454;2022-11-27T20:57:56;97565.84;;;3.69;100.00
54918;BME280;40818;50.562;7.454;2022-11-27T21:08:02;97564.56;;;3.80;100.00
54918;BME280;40818;50.562;7.454;2022-11-27T21:18:06;97559.13;;;3.87;100.00
54918;BME280;40818;50.562;7.454;2022-11-27T21:28:12;97554.69;;;3.91;100.00
54918;BME280;40818;50.562;7.454;2022-11-27T21:38:17;97556.06;;;4.00;100.00
54918;BME280;40818;50.562;7.454;2022-11-27T21:48:23;97538.75;;;4.03;100.00
54918;BME280;40818;50.562;7.454;2022-11-27T21:58:26;97535.22;;;4.06;100.00
54918;BME280;40818;50.562;7.454;2022-11-27T22:08:37;97535.44;;;4.01;100.00
54918;BME280;40818;50.562;7.454;2022-11-27T22:18:41;97521.44;;;3.88;100.00
54918;BME280;40818;50.562;7.454;2022-11-27T22:28:48;97510.47;;;3.84;100.00
54918;BME280;40818;50.562;7.454;2022-11-27T22:38:54;97499.03;;;3.91;100.00
54918;BME280;40818;50.562;7.454;2022-11-27T22:49:02;97495.75;;;3.88;100.00
54918;BME280;40818;50.562;7.454;2022-11-27T22:59:06;97502.50;;;3.90;100.00
54918;BME280;40818;50.562;7.454;2022-11-27T23:09:14;97500.22;;;3.83;100.00
54918;BME280;40818;50.562;7.454;2022-11-27T23:19:18;97473.41;;;3.69;100.00
54918;BME280;40818;50.562;7.454;2022-11-27T23:29:24;97439.59;;;3.59;100.00
54918;BME280;40818;50.562;7.454;2022-11-27T23:39:27;97427.84;;;3.54;100.00
54918;BME280;40818;50.562;7.454;2022-11-27T23:49:33;97430.16;;;3.60;100.00
54918;BME280;40818;50.562;7.454;2022-11-27T23:59:37;97424.69;;;3.68;100.00
